Time;durP1;ratioP1;P1;durP2;ratioP2;P2;SDS_P1;SDS_P2;PMS_P1;PMS_P2;Temp;Humidity;BMP_temperature;BMP_pressure;BME280_temperature;BME280_humidity;BME280_pressure;Samples;Min_cycle;Max_cycle;Signal;HPM_P1;HPM_P2
2022/12/27 00:01:31;;;;;;;2.28;2.13;;;;;;;5.02;59.89;95905.34;4952774;29;20200;-63
2022/12/27 00:03:59;;;;;;;3.95;2.80;;;;;;;4.91;60.24;95900.72;4934892;29;20657;-64
2022/12/27 00:06:27;;;;;;;1.10;1.10;;;;;;;5.13;59.48;95899.59;4952151;29;20196;-64
2022/12/27 00:08:55;;;;;;;4.70;2.22;;;;;;;4.98;59.31;95909.34;4951792;29;20204;-62
2022/12/27 00:11:24;;;;;;;1.30;1.23;;;;;;;5.08;58.89;95899.38;4952531;29;20224;-63
2022/12/27 00:13:51;;;;;;;2.35;2.22;;;;;;;4.99;59.12;95900.56;4951757;29;20214;-64
2022/12/27 00:16:20;;;;;;;2.05;1.92;;;;;;;5.16;58.38;95903.59;4951707;29;20212;-64
2022/12/27 00:18:48;;;;;;;0.22;0.22;;;;;;;5.14;58.57;95909.00;4951437;29;20291;-62
2022/12/27 00:21:16;;;;;;;3.75;3.20;;;;;;;5.04;58.52;95898.16;4936013;29;20290;-63
2022/12/27 00:23:47;;;;;;;0.77;0.77;;;;;;;4.97;58.33;95902.56;4951477;29;20196;-63
2022/12/27 00:26:26;;;;;;;7.78;4.32;;;;;;;5.16;58.05;95890.59;4952361;29;20204;-63
2022/12/27 00:28:53;;;;;;;4.53;3.33;;;;;;;4.92;58.41;95902.34;4951300;29;20200;-67
2022/12/27 00:31:22;;;;;;;7.30;3.30;;;;;;;4.81;58.89;95896.91;4950632;29;20294;-63
2022/12/27 00:33:51;;;;;;;3.25;2.97;;;;;;;4.85;58.60;95887.75;4950646;29;20208;-64
2022/12/27 00:36:21;;;;;;;11.02;7.22;;;;;;;4.85;58.92;95898.91;4951728;29;20227;-63
2022/12/27 00:38:48;;;;;;;12.63;10.48;;;;;;;4.75;59.32;95901.09;4951525;29;20313;-64
2022/12/27 00:41:16;;;;;;;18.75;7.28;;;;;;;4.68;59.54;95908.06;4951515;29;20219;-65
2022/12/27 00:43:43;;;;;;;9.02;6.63;;;;;;;4.79;59.42;95915.28;4950824;29;20236;-63
2022/12/27 00:46:10;;;;;;;6.97;6.30;;;;;;;4.86;58.83;95910.09;4951177;29;20711;-63
2022/12/27 00:48:38;;;;;;;3.75;2.53;;;;;;;4.82;58.36;95917.47;4951088;29;20234;-64
2022/12/27 00:51:10;;;;;;;11.20;5.30;;;;;;;4.65;58.86;95913.63;4951052;29;20200;-61
2022/12/27 00:53:37;;;;;;;11.25;5.38;;;;;;;4.70;58.60;95921.66;4951271;29;20275;-62
2022/12/27 00:56:16;;;;;;;4.78;4.35;;;;;;;4.52;60.21;95929.16;4950088;28;20266;-64
2022/12/27 00:58:44;;;;;;;9.40;7.38;;;;;;;4.47;60.31;95930.72;4943785;29;20200;-62
2022/12/27 01:01:18;;;;;;;11.82;8.48;;;;;;;4.40;61.08;95932.50;4950797;29;20207;-64
2022/12/27 01:03:45;;;;;;;11.90;9.10;;;;;;;3.87;62.88;95944.28;4950382;29;20210;-64
2022/12/27 01:06:15;;;;;;;6.05;5.53;;;;;;;3.77;63.28;95928.28;4950800;29;20222;-62
2022/12/27 01:08:44;;;;;;;9.80;6.97;;;;;;;4.23;62.02;95924.22;4951077;29;20266;-64
2022/12/27 01:11:12;;;;;;;5.80;5.22;;;;;;;4.33;62.30;95918.66;4951053;29;20200;-63
2022/12/27 01:13:40;;;;;;;8.48;3.53;;;;;;;4.34;61.89;95928.88;4950714;29;20203;-62
2022/12/27 01:16:09;;;;;;;6.80;4.65;;;;;;;4.57;61.56;95931.97;4950915;29;20620;-62
2022/12/27 01:18:37;;;;;;;3.50;3.20;;;;;;;4.37;61.40;95925.88;4950521;29;20738;-62
2022/12/27 01:21:06;;;;;;;8.20;6.20;;;;;;;4.28;61.81;95926.22;4950658;29;20707;-63
2022/12/27 01:23:33;;;;;;;10.98;6.20;;;;;;;4.39;61.48;95910.91;4950528;29;20581;-63
2022/12/27 01:26:01;;;;;;;3.80;2.80;;;;;;;4.34;61.42;95910.69;4951100;29;20655;-64
2022/12/27 01:28:29;;;;;;;5.10;4.63;;;;;;;4.46;61.42;95909.16;4950565;29;20203;-63
2022/12/27 01:30:55;;;;;;;2.80;1.88;;;;;;;4.52;61.31;95905.78;4950929;29;20202;-65
2022/12/27 01:33:23;;;;;;;3.58;3.22;;;;;;;4.38;61.92;95905.94;4950796;29;20208;-66
2022/12/27 01:35:50;;;;;;;3.40;3.13;;;;;;;4.27;62.31;95902.06;4951055;29;20220;-64
2022/12/27 01:38:16;;;;;;;5.03;4.20;;;;;;;4.53;61.53;95898.78;4949965;29;20219;-62
2022/12/27 01:40:43;;;;;;;4.40;4.05;;;;;;;4.34;62.24;95900.31;4950581;29;20219;-63
2022/12/27 01:43:17;;;;;;;3.28;3.08;;;;;;;4.60;61.99;95891.84;4950396;28;20610;-63
2022/12/27 01:45:46;;;;;;;0.85;0.85;;;;;;;4.60;61.95;95900.41;4950580;29;20234;-64
2022/12/27 01:48:18;;;;;;;1.10;1.02;;;;;;;4.63;62.16;95899.25;4950171;29;20645;-63
2022/12/27 01:50:52;;;;;;;2.33;2.22;;;;;;;4.59;61.47;95898.03;4949705;29;20266;-64
2022/12/27 01:53:26;;;;;;;1.10;1.10;;;;;;;4.37;61.91;95894.75;4950941;29;20647;-62
2022/12/27 01:55:58;;;;;;;1.48;1.35;;;;;;;4.02;63.89;95895.72;4951095;29;20207;-65
2022/12/27 01:58:34;;;;;;;0.63;0.63;;;;;;;4.39;62.40;95897.13;4951231;29;20232;-65
2022/12/27 02:01:04;;;;;;;3.20;2.72;;;;;;;4.31;63.05;95895.50;4950661;29;20207;-64
2022/12/27 02:03:35;;;;;;;2.30;2.10;;;;;;;4.41;63.64;95906.34;4950873;29;20524;-62
2022/12/27 02:06:05;;;;;;;1.60;1.50;;;;;;;4.53;63.21;95891.81;4950788;29;20208;-63
2022/12/27 02:08:50;;;;;;;4.53;2.90;;;;;;;4.45;63.88;95892.00;4953414;28;20211;-65
2022/12/27 02:11:49;;;;;;;5.35;2.75;;;;;;;3.99;64.37;95881.38;4943336;29;20200;-63
2022/12/27 02:14:11;;;;;;;2.20;2.03;;;;;;;4.40;63.38;95878.00;4954453;29;20295;-64
2022/12/27 02:16:38;;;;;;;1.55;1.17;;;;;;;3.82;64.36;95882.66;4954689;29;20267;-65
2022/12/27 02:19:21;;;;;;;0.65;0.65;;;;;;;4.13;63.48;95902.97;4954741;29;20199;-64
2022/12/27 02:22:09;;;;;;;2.47;2.28;;;;;;;4.14;63.00;95891.63;4954349;29;20632;-63
2022/12/27 02:24:58;;;;;;;2.03;1.90;;;;;;;4.40;62.11;95899.53;4954174;29;20212;-63
2022/12/27 02:27:44;;;;;;;1.98;1.88;;;;;;;4.47;61.58;95895.16;4942285;29;20239;-63
2022/12/27 02:30:12;;;;;;;2.08;1.98;;;;;;;4.47;61.34;95899.59;4954385;29;20254;-63
2022/12/27 02:32:50;;;;;;;2.15;1.95;;;;;;;4.47;61.19;95899.59;4954585;29;20290;-62
2022/12/27 02:35:25;;;;;;;3.55;2.38;;;;;;;4.62;60.83;95898.44;4955237;29;20262;-63
2022/12/27 02:38:03;;;;;;;1.30;1.23;;;;;;;4.54;61.12;95896.03;4953616;29;20222;-64
2022/12/27 02:54:59;;;;;;;1.90;1.67;;;;;;;4.27;61.43;95899.47;4954038;29;20222;-64
2022/12/27 02:57:51;;;;;;;2.65;2.45;;;;;;;4.40;60.56;95891.75;4953689;29;20778;-62
2022/12/27 03:03:19;;;;;;;3.42;3.13;;;;;;;4.44;60.35;95900.75;4953626;29;20227;-63
2022/12/27 03:15:54;;;;;;;5.15;4.15;;;;;;;3.80;61.13;95917.53;4953516;29;20212;-64
2022/12/27 03:18:48;;;;;;;3.70;3.40;;;;;;;3.85;61.00;95921.16;4953254;28;20227;-66
2022/12/27 03:27:01;;;;;;;11.63;4.18;;;;;;;3.60;61.12;95911.38;4954022;29;20208;-63
2022/12/27 03:35:17;;;;;;;6.38;5.80;;;;;;;3.68;60.93;95913.84;4953226;29;20215;-63
2022/12/27 03:38:03;;;;;;;24.55;9.63;;;;;;;3.58;60.74;95906.41;4952825;29;20231;-64
2022/12/27 03:40:37;;;;;;;12.68;6.28;;;;;;;3.62;60.67;95909.41;4952907;29;20283;-64
2022/12/27 03:43:14;;;;;;;11.20;6.57;;;;;;;3.84;60.67;95913.56;4952981;29;20210;-63
2022/12/27 03:48:37;;;;;;;4.53;4.03;;;;;;;3.55;61.65;95914.56;4952566;29;20200;-63
2022/12/27 03:51:06;;;;;;;3.53;3.22;;;;;;;3.23;62.31;95915.03;4935643;29;20587;-63
2022/12/27 03:53:39;;;;;;;20.67;8.85;;;;;;;3.55;61.74;95918.94;4952551;29;20199;-63
2022/12/27 03:56:08;;;;;;;3.15;2.92;;;;;;;3.71;61.24;95918.66;4953110;29;20215;-63
2022/12/27 03:58:35;;;;;;;13.50;7.00;;;;;;;3.93;60.32;95913.25;4952855;29;20315;-63
2022/12/27 04:01:02;;;;;;;5.88;4.70;;;;;;;3.96;59.98;95918.03;4952618;29;20246;-62
2022/12/27 04:03:28;;;;;;;8.02;6.47;;;;;;;3.94;59.81;95914.06;4952813;29;20207;-62
2022/12/27 04:05:55;;;;;;;5.93;5.18;;;;;;;3.76;60.06;95921.50;4951717;29;20291;-61
2022/12/27 04:35:59;;;;;;;6.40;2.78;;;;;;;3.58;60.19;95934.91;4951828;29;20207;-64
2022/12/27 04:38:32;;;;;;;5.55;5.05;;;;;;;3.38;60.43;95943.47;4951718;29;20231;-63
2022/12/27 04:55:10;;;;;;;6.47;5.97;;;;;;;3.78;59.28;95958.38;4951548;29;20231;-64
2022/12/27 04:57:37;;;;;;;6.63;5.93;;;;;;;3.61;59.59;95954.47;4951172;29;20278;-64
2022/12/27 05:02:50;;;;;;;6.55;4.65;;;;;;;3.01;61.64;95955.66;4951659;29;20622;-63
2022/12/27 05:05:17;;;;;;;7.75;6.13;;;;;;;3.17;61.57;95956.44;4951537;29;20228;-63
2022/12/27 05:16:01;;;;;;;7.30;5.20;;;;;;;2.99;62.37;95939.50;4941024;29;20207;-63
2022/12/27 05:18:28;;;;;;;6.15;4.85;;;;;;;2.90;61.91;95925.06;4951067;29;20310;-63
2022/12/27 05:20:59;;;;;;;3.80;3.40;;;;;;;3.19;61.35;95933.75;4951486;29;20299;-64
2022/12/27 05:26:21;;;;;;;10.23;2.50;;;;;;;3.17;62.37;95938.31;4960355;28;20199;-63
2022/12/27 05:28:50;;;;;;;2.35;2.15;;;;;;;3.40;62.20;95931.13;4951245;29;20291;-63
2022/12/27 05:31:18;;;;;;;3.40;3.10;;;;;;;3.33;62.15;95925.09;4951054;29;20219;-65
2022/12/27 05:33:45;;;;;;;0.82;0.82;;;;;;;3.23;62.40;95927.22;4951043;29;21133;-65
2022/12/27 05:36:12;;;;;;;2.83;2.60;;;;;;;3.32;61.75;95923.50;4951163;29;20243;-64
2022/12/27 05:38:39;;;;;;;2.17;2.05;;;;;;;3.38;61.00;95918.38;4951219;29;20609;-64
2022/12/27 05:41:06;;;;;;;5.20;3.30;;;;;;;3.40;61.29;95915.59;4951563;29;20204;-63
2022/12/27 05:43:34;;;;;;;7.63;4.32;;;;;;;3.40;61.04;95921.59;4950491;29;20192;-62
2022/12/27 05:46:09;;;;;;;5.20;4.25;;;;;;;3.59;60.92;95925.34;4951023;29;20236;-63
2022/12/27 05:48:36;;;;;;;4.97;3.45;;;;;;;3.18;61.83;95927.75;4938658;29;20246;-63
2022/12/27 05:51:12;;;;;;;29.15;10.80;;;;;;;3.35;62.26;95938.69;4951266;29;20234;-63
2022/12/27 05:53:39;;;;;;;7.10;6.35;;;;;;;3.02;63.20;95944.34;4951239;29;20207;-63
2022/12/27 05:56:07;;;;;;;11.38;7.90;;;;;;;2.99;63.24;95939.50;4950445;29;20742;-64
2022/12/27 05:58:34;;;;;;;4.07;3.65;;;;;;;3.02;63.50;95948.72;4951186;29;20243;-63
2022/12/27 06:01:08;;;;;;;9.95;6.07;;;;;;;3.30;63.60;95947.03;4954693;28;20225;-62
2022/12/27 06:03:35;;;;;;;6.15;5.55;;;;;;;3.25;62.52;95938.19;4959378;28;20258;-63
2022/12/27 06:06:04;;;;;;;6.05;5.55;;;;;;;3.06;62.99;95948.19;4950536;29;20278;-61
2022/12/27 06:08:31;;;;;;;21.88;6.72;;;;;;;3.28;62.23;95951.56;4951177;29;20211;-62
2022/12/27 06:11:10;;;;;;;18.08;7.20;;;;;;;3.07;62.59;95954.94;4950805;29;20200;-62
2022/12/27 06:13:39;;;;;;;13.45;7.32;;;;;;;2.78;62.97;95947.25;4950659;29;20250;-62
2022/12/27 06:16:07;;;;;;;4.65;4.25;;;;;;;2.30;64.32;95963.34;4950755;29;20188;-61
2022/12/27 06:18:36;;;;;;;8.43;5.93;;;;;;;2.63;63.29;95964.56;4950634;28;20322;-64
2022/12/27 06:21:08;;;;;;;1.52;1.42;;;;;;;2.28;64.31;95960.13;4950951;29;20219;-63
2022/12/27 06:23:37;;;;;;;10.05;7.38;;;;;;;2.14;64.87;95981.63;4950467;29;20204;-63
2022/12/27 06:26:06;;;;;;;11.23;4.47;;;;;;;2.34;64.38;95974.94;4950542;29;20644;-63
2022/12/27 06:28:33;;;;;;;5.72;4.57;;;;;;;2.73;62.92;95980.63;4950487;29;20282;-62
2022/12/27 06:31:01;;;;;;;2.60;2.05;;;;;;;2.77;63.27;95966.34;4950947;29;20196;-62
2022/12/27 06:33:29;;;;;;;3.55;3.25;;;;;;;3.01;62.53;95966.03;4950384;29;20687;-63
2022/12/27 06:35:56;;;;;;;4.05;3.42;;;;;;;3.25;61.88;95969.28;4950570;29;20220;-63
2022/12/27 06:38:24;;;;;;;6.60;3.80;;;;;;;3.15;62.21;95963.56;4949699;29;20982;-63
2022/12/27 06:40:51;;;;;;;5.35;3.80;;;;;;;3.19;62.12;95960.44;4950450;29;20196;-64
2022/12/27 06:43:18;;;;;;;4.18;3.78;;;;;;;3.00;63.35;95967.03;4950491;29;20656;-63
2022/12/27 06:45:54;;;;;;;4.57;4.20;;;;;;;3.31;62.58;95968.53;4950254;29;20251;-62
2022/12/27 06:48:21;;;;;;;9.07;5.35;;;;;;;3.40;62.83;95967.41;4950708;29;20203;-63
2022/12/27 06:50:48;;;;;;;2.55;2.10;;;;;;;3.50;63.11;95973.09;4950744;29;20203;-64
2022/12/27 06:53:15;;;;;;;3.75;3.30;;;;;;;3.66;62.83;95967.66;4950921;28;20196;-63
2022/12/27 06:55:42;;;;;;;2.90;2.00;;;;;;;3.86;62.19;95968.63;4953292;29;20227;-64
2022/12/27 06:58:11;;;;;;;7.93;4.43;;;;;;;3.99;62.15;95958.38;4954352;28;20278;-61
2022/12/27 07:00:39;;;;;;;8.45;4.70;;;;;;;4.16;61.59;95970.03;4954380;29;20238;-63
2022/12/27 07:03:06;;;;;;;3.30;3.10;;;;;;;4.38;61.14;95963.78;4953721;29;20202;-64
2022/12/27 07:05:37;;;;;;;1.95;1.90;;;;;;;4.54;61.09;95958.31;4954056;29;20215;-62
2022/12/27 07:08:05;;;;;;;1.73;1.63;;;;;;;4.44;61.40;95957.84;4941241;29;20196;-63
2022/12/27 07:10:31;;;;;;;2.22;2.13;;;;;;;4.61;60.99;95961.75;4953639;29;20559;-64
2022/12/27 07:13:00;;;;;;;4.43;2.17;;;;;;;4.68;60.91;95949.59;4953879;29;20199;-63
2022/12/27 07:15:26;;;;;;;4.10;2.80;;;;;;;4.46;61.43;95945.47;4952980;29;20212;-64
2022/12/27 07:17:53;;;;;;;4.78;4.03;;;;;;;4.09;62.79;95949.25;4952981;29;20259;-64
2022/12/27 07:20:20;;;;;;;4.38;3.13;;;;;;;3.91;63.62;95940.34;4952972;29;20650;-64
2022/12/27 07:22:47;;;;;;;5.85;3.70;;;;;;;4.41;62.72;95936.66;4952908;29;20200;-63
2022/12/27 07:25:14;;;;;;;0.63;0.63;;;;;;;4.53;62.25;95946.31;4952972;29;20208;-64
2022/12/27 07:27:41;;;;;;;2.58;2.38;;;;;;;4.53;62.77;95940.31;4953083;29;20652;-61
2022/12/27 07:30:08;;;;;;;5.35;3.15;;;;;;;4.85;61.84;95958.63;4952892;29;20200;-63
2022/12/27 07:32:35;;;;;;;1.55;0.73;;;;;;;4.13;64.52;95960.84;4949085;29;20227;-64
2022/12/27 07:35:02;;;;;;;2.55;2.35;;;;;;;4.43;63.39;95958.84;4952384;29;20200;-62
2022/12/27 07:37:29;;;;;;;2.97;2.33;;;;;;;4.52;62.63;95960.28;4952432;29;20641;-62
2022/12/27 07:39:55;;;;;;;4.40;2.05;;;;;;;4.78;62.25;95955.22;4952328;29;20711;-63
2022/12/27 07:42:22;;;;;;;3.15;1.65;;;;;;;4.58;62.68;95954.31;4952450;28;20279;-63
2022/12/27 07:44:49;;;;;;;1.15;1.00;;;;;;;4.61;62.66;95943.56;4952408;29;20330;-64
2022/12/27 07:47:16;;;;;;;3.80;2.97;;;;;;;4.93;61.98;95932.50;4950827;29;20686;-64
2022/12/27 07:49:42;;;;;;;2.28;2.05;;;;;;;5.10;61.70;95933.75;4952373;28;20239;-63
2022/12/27 07:52:09;;;;;;;5.05;2.47;;;;;;;5.11;62.21;95934.53;4952863;29;20212;-63
2022/12/27 07:54:36;;;;;;;2.88;2.63;;;;;;;5.20;61.83;95932.59;4951616;28;20246;-62
2022/12/27 07:57:03;;;;;;;1.67;1.58;;;;;;;5.69;62.39;95943.44;4952672;29;20210;-62
2022/12/27 07:59:30;;;;;;;1.05;1.00;;;;;;;6.23;60.51;95936.25;4951847;29;20721;-61
2022/12/27 08:02:05;;;;;;;0.82;0.82;;;;;;;6.45;59.60;95945.41;4952609;29;20319;-63
2022/12/27 08:04:37;;;;;;;1.95;1.85;;;;;;;6.49;58.53;95940.59;4951513;28;20203;-63
2022/12/27 08:07:12;;;;;;;2.22;2.03;;;;;;;6.56;59.03;95942.19;4952016;29;20247;-63
2022/12/27 08:09:41;;;;;;;3.75;1.30;;;;;;;6.50;59.08;95948.19;4952003;29;20769;-64
2022/12/27 08:12:09;;;;;;;4.72;3.70;;;;;;;6.63;59.32;95953.38;4951828;29;20192;-63
2022/12/27 08:14:36;;;;;;;1.60;1.50;;;;;;;6.66;58.39;95952.94;4951868;29;20212;-63
2022/12/27 08:17:16;;;;;;;3.67;3.47;;;;;;;7.18;57.64;95944.94;4951853;29;20259;-63
2022/12/27 08:19:43;;;;;;;2.83;2.58;;;;;;;7.46;56.34;95949.00;4949779;29;20610;-62
2022/12/27 08:22:10;;;;;;;3.20;2.97;;;;;;;6.95;57.18;95962.09;4950997;29;20215;-64
2022/12/27 08:24:39;;;;;;;8.38;4.43;;;;;;;7.21;57.28;95951.53;4950710;29;20338;-62
2022/12/27 08:27:07;;;;;;;1.55;1.45;;;;;;;7.38;56.91;95954.44;4948234;29;20215;-63
2022/12/27 08:29:34;;;;;;;6.05;4.40;;;;;;;7.22;57.41;95953.91;4946428;29;20644;-62
2022/12/27 08:32:01;;;;;;;10.00;2.85;;;;;;;7.41;57.89;95946.22;4935131;29;20278;-65
2022/12/27 08:34:28;;;;;;;2.30;2.13;;;;;;;7.76;56.67;95949.97;4950276;29;20319;-64
2022/12/27 08:36:56;;;;;;;0.90;0.90;;;;;;;8.26;55.45;95948.19;4949129;29;20251;-63
2022/12/27 08:39:23;;;;;;;2.20;2.10;;;;;;;7.87;55.03;95931.03;4947159;29;20290;-63
2022/12/27 08:41:52;;;;;;;2.33;1.90;;;;;;;7.96;54.96;95920.13;4948989;29;20200;-63
2022/12/27 08:44:20;;;;;;;1.25;1.17;;;;;;;8.07;55.07;95921.22;4948980;29;20244;-65
2022/12/27 08:46:47;;;;;;;5.82;2.05;;;;;;;8.75;54.21;95919.34;4939605;29;20203;-62
2022/12/27 08:49:14;;;;;;;2.00;1.90;;;;;;;8.82;53.33;95917.44;4951241;28;20239;-63
2022/12/27 08:51:40;;;;;;;4.50;2.95;;;;;;;9.90;52.28;95913.72;4948590;28;20523;-62
2022/12/27 08:54:08;;;;;;;1.58;1.48;;;;;;;10.14;50.48;95920.63;4948613;29;20553;-63
2022/12/27 08:56:35;;;;;;;1.60;1.50;;;;;;;9.50;52.44;95912.72;4947954;29;20354;-63
2022/12/27 08:59:02;;;;;;;10.50;3.63;;;;;;;10.02;52.13;95911.91;4949752;29;20562;-66
2022/12/27 09:01:29;;;;;;;2.73;2.53;;;;;;;10.52;51.10;95902.59;4947215;29;20991;-62
2022/12/27 09:03:55;;;;;;;3.17;2.93;;;;;;;10.38;49.67;95911.72;4949450;29;20443;-61
2022/12/27 09:06:23;;;;;;;2.97;1.67;;;;;;;10.61;50.24;95909.06;4948297;29;20475;-62
2022/12/27 09:08:51;;;;;;;0.53;0.53;;;;;;;10.89;49.86;95903.09;4946915;29;20503;-64
2022/12/27 09:11:21;;;;;;;5.03;1.90;;;;;;;11.42;48.33;95885.22;4947446;29;20597;-62
2022/12/27 09:13:48;;;;;;;0.80;0.80;;;;;;;10.78;48.82;95894.25;4948180;29;20446;-63
2022/12/27 09:16:18;;;;;;;1.87;1.73;;;;;;;10.84;49.46;95885.41;4949079;28;20454;-63
2022/12/27 09:18:49;;;;;;;4.30;2.90;;;;;;;11.22;49.14;95888.25;4948212;29;20510;-64
2022/12/27 09:21:16;;;;;;;9.93;5.90;;;;;;;11.84;48.04;95877.78;4948286;29;20449;-62
2022/12/27 09:23:44;;;;;;;3.93;3.57;;;;;;;12.16;47.96;95873.53;4949157;29;21053;-66
2022/12/27 09:26:12;;;;;;;7.33;4.53;;;;;;;11.80;47.80;95874.84;4948908;29;20506;-63
2022/12/27 09:28:39;;;;;;;2.57;2.33;;;;;;;12.44;47.11;95860.28;4948769;29;20510;-62
2022/12/27 09:31:08;;;;;;;1.20;1.10;;;;;;;12.57;46.52;95846.75;4945947;29;20535;-64
2022/12/27 09:33:36;;;;;;;2.77;1.63;;;;;;;12.80;45.82;95843.91;4946541;29;20539;-63
2022/12/27 09:36:11;;;;;;;5.20;3.67;;;;;;;13.01;45.17;95850.19;4948891;29;20451;-65
2022/12/27 09:38:39;;;;;;;2.87;2.00;;;;;;;12.99;44.99;95853.03;4948618;29;20506;-62
2022/12/27 09:41:34;;;;;;;1.47;1.37;;;;;;;13.08;44.71;95854.22;4948979;29;20966;-62
2022/12/27 09:44:35;;;;;;;0.53;0.53;;;;;;;13.53;44.63;95842.53;4947985;29;20478;-63
2022/12/27 09:47:09;;;;;;;3.37;2.57;;;;;;;13.61;44.03;95840.25;4948176;29;20950;-63
2022/12/27 09:49:40;;;;;;;2.43;2.13;;;;;;;13.56;44.18;95842.03;4947940;29;20444;-63
2022/12/27 09:52:21;;;;;;;2.13;1.80;;;;;;;13.83;43.15;95833.03;4947544;29;20455;-61
2022/12/27 09:55:11;;;;;;;3.73;2.73;;;;;;;13.54;44.92;95828.34;4953316;28;20452;-63
2022/12/27 09:57:41;;;;;;;18.23;7.10;;;;;;;13.59;45.44;95844.19;4951295;28;20455;-66
2022/12/27 10:00:15;;;;;;;8.47;6.67;;;;;;;13.43;45.30;95842.47;4960908;28;20478;-65
2022/12/27 10:02:45;;;;;;;4.60;2.83;;;;;;;13.47;45.44;95846.16;4960924;28;21079;-65
2022/12/27 10:05:18;;;;;;;1.80;1.70;;;;;;;13.42;44.49;95825.88;4949122;28;20475;-63
2022/12/27 10:08:18;;;;;;;7.57;5.60;;;;;;;13.04;43.81;95837.38;4941329;29;20458;-66
2022/12/27 10:10:57;;;;;;;3.20;2.83;;;;;;;13.18;44.41;95806.97;4944892;29;20450;-64
2022/12/27 10:13:56;;;;;;;6.50;3.73;;;;;;;13.60;43.71;95796.53;4945780;29;20447;-63
2022/12/27 10:16:26;;;;;;;8.23;2.37;;;;;;;13.51;43.22;95792.78;4947504;29;20448;-64
2022/12/27 10:19:15;;;;;;;8.43;3.80;;;;;;;13.07;44.42;95786.06;4944161;29;20566;-65
2022/12/27 10:21:53;;;;;;;12.60;10.40;;;;;;;12.87;45.02;95786.63;4946915;29;20440;-66
2022/12/27 10:24:36;;;;;;;4.27;3.47;;;;;;;12.94;43.85;95803.00;4946290;29;20451;-64
2022/12/27 10:27:12;;;;;;;1.83;1.73;;;;;;;13.27;44.17;95795.97;4946232;29;21026;-65
2022/12/27 10:29:40;;;;;;;1.30;1.20;;;;;;;13.58;43.97;95797.81;4952193;28;20447;-65
2022/12/27 10:32:13;;;;;;;0.73;0.73;;;;;;;13.59;43.97;95794.97;4949414;29;20435;-65
2022/12/27 10:34:39;;;;;;;1.23;1.13;;;;;;;13.40;44.17;95790.31;4947918;29;20443;-60
2022/12/27 10:37:13;;;;;;;5.07;3.07;;;;;;;13.49;44.99;95783.53;4952089;29;20443;-63
2022/12/27 10:39:41;;;;;;;2.40;2.20;;;;;;;13.83;44.08;95793.53;4949451;29;20489;-62
2022/12/27 10:42:30;;;;;;;4.63;3.23;;;;;;;13.89;43.93;95794.34;4948182;29;20451;-61
2022/12/27 10:45:25;;;;;;;2.50;2.30;;;;;;;13.61;44.46;95790.19;4941251;29;20467;-66
2022/12/27 10:47:54;;;;;;;2.90;2.70;;;;;;;13.69;44.84;95784.47;4947831;29;20447;-62
2022/12/27 10:50:27;;;;;;;4.17;2.97;;;;;;;13.67;44.69;95781.31;4946205;29;20455;-65
2022/12/27 10:52:54;;;;;;;8.37;4.83;;;;;;;13.55;45.98;95782.53;4950227;28;20443;-64
2022/12/27 10:55:36;;;;;;;5.07;3.03;;;;;;;13.80;43.49;95775.59;4950402;29;20566;-65
2022/12/27 10:58:39;;;;;;;3.10;2.80;;;;;;;13.59;43.40;95778.34;4948177;29;20478;-64
2022/12/27 11:01:14;;;;;;;11.47;7.23;;;;;;;13.96;43.81;95768.56;4943950;29;20451;-65
2022/12/27 11:03:41;;;;;;;4.20;3.13;;;;;;;13.84;43.20;95770.63;4949159;29;20443;-65
2022/12/27 11:06:23;;;;;;;2.23;2.13;;;;;;;13.96;42.93;95763.31;4949728;29;20522;-65
2022/12/27 11:08:53;;;;;;;1.93;1.57;;;;;;;14.00;43.48;95775.72;4947114;29;20447;-64
2022/12/27 11:11:25;;;;;;;2.40;2.23;;;;;;;13.48;45.24;95777.50;4948785;29;20452;-66
2022/12/27 11:14:08;;;;;;;1.63;1.53;;;;;;;13.82;45.00;95772.72;4945821;29;20838;-64
2022/12/27 11:16:36;;;;;;;4.07;3.00;;;;;;;13.44;44.71;95767.69;4950360;29;20475;-63
2022/12/27 11:19:03;;;;;;;5.33;3.73;;;;;;;13.67;45.48;95772.59;4945093;29;20474;-64
2022/12/27 11:21:37;;;;;;;4.77;3.10;;;;;;;13.64;45.35;95781.00;4952627;29;20494;-65
2022/12/27 11:24:11;;;;;;;1.30;1.27;;;;;;;13.53;45.96;95769.63;4945588;29;20446;-64
2022/12/27 11:27:01;;;;;;;2.03;1.50;;;;;;;13.48;45.59;95766.16;4942718;29;20452;-62
2022/12/27 11:29:31;;;;;;;3.87;3.50;;;;;;;13.61;45.87;95752.56;4940539;29;20499;-63
2022/12/27 11:32:06;;;;;;;2.57;2.37;;;;;;;13.72;45.83;95765.53;4946045;29;20535;-64
2022/12/27 11:34:36;;;;;;;2.03;1.83;;;;;;;13.77;45.91;95770.06;4942631;29;20446;-64
2022/12/27 11:37:14;;;;;;;1.73;1.63;;;;;;;13.84;45.19;95760.88;4942505;29;20915;-69
2022/12/27 11:39:52;;;;;;;0.83;0.83;;;;;;;13.75;44.78;95764.25;4945257;29;20867;-67
2022/12/27 11:42:31;;;;;;;6.40;4.70;;;;;;;13.70;44.29;95769.47;4938976;29;21039;-62
2022/12/27 11:45:05;;;;;;;3.90;2.53;;;;;;;13.89;44.92;95760.09;4951030;29;20542;-63
2022/12/27 11:47:44;;;;;;;4.17;3.60;;;;;;;13.51;45.62;95763.81;4952806;29;20549;-64
2022/12/27 11:50:26;;;;;;;0.43;0.43;;;;;;;13.48;44.19;95760.88;4952389;29;20447;-64
2022/12/27 11:53:00;;;;;;;21.50;2.93;;;;;;;13.95;43.79;95761.72;4951935;29;20450;-66
2022/12/27 11:56:05;;;;;;;2.83;1.90;;;;;;;15.07;42.01;95754.78;4951555;29;20829;-63
2022/12/27 11:58:50;;;;;;;6.53;3.77;;;;;;;16.27;39.31;95755.75;4952446;29;20888;-64
2022/12/27 12:01:43;;;;;;;10.10;3.93;;;;;;;16.55;39.95;95743.78;4942282;28;20443;-63
2022/12/27 12:04:28;;;;;;;2.83;1.50;;;;;;;17.02;38.60;95750.13;4916389;29;20456;-65
2022/12/27 12:07:23;;;;;;;6.77;5.57;;;;;;;17.47;38.27;95740.25;4951814;29;20980;-64
2022/12/27 12:10:00;;;;;;;5.13;1.83;;;;;;;17.38;38.55;95752.53;4951994;29;20440;-63
2022/12/27 12:13:05;;;;;;;2.90;2.60;;;;;;;17.02;38.67;95744.81;4952213;29;20959;-65
2022/12/27 12:15:54;;;;;;;2.60;2.30;;;;;;;16.27;39.26;95742.53;4940105;29;20451;-63
2022/12/27 12:18:59;;;;;;;3.90;3.50;;;;;;;15.62;40.26;95755.91;4915914;29;20987;-64
2022/12/27 12:21:52;;;;;;;1.90;1.43;;;;;;;14.72;41.68;95746.81;4948925;29;20471;-63
2022/12/27 12:24:30;;;;;;;9.87;3.03;;;;;;;14.88;41.66;95743.16;4941301;29;20962;-66
2022/12/27 12:27:09;;;;;;;7.80;4.83;;;;;;;14.76;42.09;95747.06;4949080;29;20589;-66
2022/12/27 12:30:14;;;;;;;1.13;1.07;;;;;;;14.91;42.46;95753.16;4948289;29;20504;-66
2022/12/27 12:33:01;;;;;;;2.27;1.87;;;;;;;14.57;43.16;95759.94;4938233;29;20735;-69
2022/12/27 12:35:42;;;;;;;3.20;2.90;;;;;;;14.65;43.65;95767.34;4943482;29;20483;-70
2022/12/27 12:38:12;;;;;;;2.63;1.67;;;;;;;13.95;44.80;95769.63;4939081;29;20456;-64
2022/12/27 12:40:39;;;;;;;3.17;2.97;;;;;;;13.93;44.45;95763.81;4936021;29;20471;-67
2022/12/27 12:43:28;;;;;;;2.03;1.87;;;;;;;14.13;44.94;95774.47;4942283;29;20925;-61
2022/12/27 12:46:13;;;;;;;2.63;2.43;;;;;;;14.18;44.57;95772.66;4935268;29;20484;-72
2022/12/27 12:49:08;;;;;;;3.77;1.70;;;;;;;14.13;45.53;95775.28;4936640;29;20955;-69
2022/12/27 12:51:54;;;;;;;4.77;2.50;;;;;;;13.34;47.59;95778.16;4943768;28;21021;-67
2022/12/27 12:54:46;;;;;;;5.07;3.50;;;;;;;13.65;47.12;95772.09;4938398;29;20440;-64
2022/12/27 12:57:58;;;;;;;7.07;4.17;;;;;;;13.41;47.01;95771.63;4948336;29;20473;-63
2022/12/27 13:00:35;;;;;;;2.93;2.13;;;;;;;13.64;46.71;95778.38;4910338;29;20492;-66
2022/12/27 13:03:20;;;;;;;2.17;1.97;;;;;;;13.75;46.02;95782.69;4940718;29;20967;-65
2022/12/27 13:06:12;;;;;;;2.43;2.23;;;;;;;14.39;45.93;95778.88;4938097;29;20447;-68
2022/12/27 13:08:50;;;;;;;3.30;2.00;;;;;;;15.70;43.74;95789.69;4951969;29;20452;-68
2022/12/27 13:11:37;;;;;;;2.67;2.47;;;;;;;17.64;40.08;95777.81;4951794;29;20458;-66
2022/12/27 13:14:17;;;;;;;2.03;1.93;;;;;;;18.69;37.23;95774.06;4945518;29;20484;-66
2022/12/27 13:17:09;;;;;;;2.77;2.57;;;;;;;18.12;38.45;95780.25;4951356;29;20501;-68
2022/12/27 13:19:36;;;;;;;1.10;1.07;;;;;;;17.10;40.04;95783.97;4951822;29;20475;-66
2022/12/27 13:22:25;;;;;;;5.87;2.47;;;;;;;16.51;41.08;95796.44;4951421;29;20974;-66
2022/12/27 13:25:22;;;;;;;25.60;5.20;;;;;;;15.58;43.78;95799.75;4944867;29;20454;-64
2022/12/27 13:28:14;;;;;;;7.73;6.13;;;;;;;15.41;44.27;95807.13;4949651;29;20450;-68
2022/12/27 13:30:52;;;;;;;7.57;5.00;;;;;;;15.02;44.53;95809.41;4951040;29;20455;-67
2022/12/27 13:33:55;;;;;;;1.07;1.03;;;;;;;14.74;45.40;95815.13;4951976;29;20451;-71
2022/12/27 13:36:56;;;;;;;1.23;1.13;;;;;;;14.17;47.29;95817.75;4912958;29;20459;-65
2022/12/27 13:39:32;;;;;;;1.37;1.23;;;;;;;14.34;46.03;95818.41;4942442;29;20470;-64
2022/12/27 13:42:18;;;;;;;0.60;0.60;;;;;;;14.28;47.53;95829.97;4950465;29;20543;-66
2022/12/27 13:44:48;;;;;;;4.07;2.67;;;;;;;14.22;47.67;95826.47;4940806;29;20479;-66